South Tidworth, United Kingdom
Current Conditions -  °F | °C
As of 9:50 PM on Thursday 23 Oct 2014 (Local Time) from EGDM Reporting Station
Broken Clouds Broken Clouds  
Wind Chill: 57°   Ceiling: 1100
Heat Index: 57°   Visibility: 6mi
Dew Point: 55°   Wind: 10mph
Humidity: 94%   Direction: 200°SSW
Pressure: 30.03"   Gusts: NA
Location:  51.23°N, 1.66°W
Report Text: EGDM 232050Z AUTO 20009KT 9999 FEW006/// BKN011/// 14/13 Q1017
Loading
Personal Weather Stations






























Interactive Weather Map
Tropical Storm Tracking
New forecast layout! Learn more

10-Day Weather Forecast

Advertisements
Track Severe Weather on mobile